sensor_id;sensor_type;location;lat;lon;timestamp;pressure;altitude;pressure_sealevel;temperature;humidity
59190;BME280;50749;51.636;4.948;2023-04-08T00:00:23;102296.50;;;17.98;54.78
59190;BME280;50749;51.636;4.948;2023-04-08T00:03:09;102295.72;;;17.98;54.75
59190;BME280;50749;51.636;4.948;2023-04-08T00:05:35;102300.44;;;17.97;54.62
59190;BME280;50749;51.636;4.948;2023-04-08T00:08:01;102294.91;;;17.97;54.70
59190;BME280;50749;51.636;4.948;2023-04-08T00:10:27;102296.34;;;17.95;54.33
59190;BME280;50749;51.636;4.948;2023-04-08T00:12:53;102300.28;;;17.94;54.48
59190;BME280;50749;51.636;4.948;2023-04-08T00:15:20;102304.97;;;17.93;54.84
59190;BME280;50749;51.636;4.948;2023-04-08T00:17:45;102295.88;;;17.93;54.48
59190;BME280;50749;51.636;4.948;2023-04-08T00:20:11;102302.19;;;17.93;54.39
59190;BME280;50749;51.636;4.948;2023-04-08T00:22:37;102308.91;;;17.92;54.91
59190;BME280;50749;51.636;4.948;2023-04-08T00:25:03;102306.13;;;17.92;54.50
59190;BME280;50749;51.636;4.948;2023-04-08T00:27:34;102298.94;;;17.91;54.41
59190;BME280;50749;51.636;4.948;2023-04-08T00:30:00;102306.44;;;17.91;54.31
59190;BME280;50749;51.636;4.948;2023-04-08T00:32:26;102309.22;;;17.91;54.31
59190;BME280;50749;51.636;4.948;2023-04-08T00:34:53;102302.03;;;17.90;54.43
59190;BME280;50749;51.636;4.948;2023-04-08T00:37:18;102304.81;;;17.90;54.35
59190;BME280;50749;51.636;4.948;2023-04-08T00:39:44;102310.34;;;17.90;54.71
59190;BME280;50749;51.636;4.948;2023-04-08T00:42:10;102304.31;;;17.88;54.73
59190;BME280;50749;51.636;4.948;2023-04-08T00:44:36;102314.25;;;17.89;54.95
59190;BME280;50749;51.636;4.948;2023-04-08T00:47:02;102311.81;;;17.87;53.65
59190;BME280;50749;51.636;4.948;2023-04-08T00:49:31;102307.91;;;17.88;53.33
59190;BME280;50749;51.636;4.948;2023-04-08T00:51:58;102318.97;;;17.88;53.50
59190;BME280;50749;51.636;4.948;2023-04-08T00:54:24;102314.03;;;17.85;53.66
59190;BME280;50749;51.636;4.948;2023-04-08T00:56:50;102325.09;;;17.85;54.10
59190;BME280;50749;51.636;4.948;2023-04-08T00:59:17;102318.28;;;17.82;54.42
59190;BME280;50749;51.636;4.948;2023-04-08T01:01:55;102314.69;;;17.82;54.55
59190;BME280;50749;51.636;4.948;2023-04-08T01:09:31;102329.16;;;17.79;54.73
59190;BME280;50749;51.636;4.948;2023-04-08T01:12:02;102323.97;;;17.77;54.24
59190;BME280;50749;51.636;4.948;2023-04-08T01:14:30;102327.84;;;17.76;54.81
59190;BME280;50749;51.636;4.948;2023-04-08T01:16:59;102332.56;;;17.76;54.42
59190;BME280;50749;51.636;4.948;2023-04-08T01:19:32;102334.53;;;17.75;54.61
59190;BME280;50749;51.636;4.948;2023-04-08T01:24:39;102326.56;;;17.74;54.42
59190;BME280;50749;51.636;4.948;2023-04-08T01:27:09;102322.94;;;17.73;54.56
59190;BME280;50749;51.636;4.948;2023-04-08T01:29:36;102335.97;;;17.73;54.32
59190;BME280;50749;51.636;4.948;2023-04-08T01:32:02;102329.63;;;17.72;54.12
59190;BME280;50749;51.636;4.948;2023-04-08T01:34:29;102336.78;;;17.73;54.71
59190;BME280;50749;51.636;4.948;2023-04-08T01:36:57;102335.66;;;17.74;54.85
59190;BME280;50749;51.636;4.948;2023-04-08T01:39:24;102331.78;;;17.75;54.33
59190;BME280;50749;51.636;4.948;2023-04-08T01:41:52;102335.34;;;17.76;54.62
59190;BME280;50749;51.636;4.948;2023-04-08T01:44:20;102335.66;;;17.74;54.31
59190;BME280;50749;51.636;4.948;2023-04-08T01:46:48;102339.53;;;17.73;54.28
59190;BME280;50749;51.636;4.948;2023-04-08T01:49:15;102342.31;;;17.73;54.31
59190;BME280;50749;51.636;4.948;2023-04-08T01:51:42;102337.09;;;17.72;54.14
59190;BME280;50749;51.636;4.948;2023-04-08T01:54:09;102341.03;;;17.71;54.21
59190;BME280;50749;51.636;4.948;2023-04-08T01:56:37;102341.03;;;17.71;54.35
59190;BME280;50749;51.636;4.948;2023-04-08T01:59:08;102336.94;;;17.68;54.34
59190;BME280;50749;51.636;4.948;2023-04-08T02:01:36;102338.88;;;17.68;54.21
59190;BME280;50749;51.636;4.948;2023-04-08T02:04:02;102336.13;;;17.68;54.46
59190;BME280;50749;51.636;4.948;2023-04-08T02:06:28;102330.91;;;17.66;54.30
59190;BME280;50749;51.636;4.948;2023-04-08T02:08:55;102339.22;;;17.66;54.30
59190;BME280;50749;51.636;4.948;2023-04-08T02:11:21;102335.63;;;17.66;54.39
59190;BME280;50749;51.636;4.948;2023-04-08T02:13:47;102332.88;;;17.66;54.38
59190;BME280;50749;51.636;4.948;2023-04-08T02:16:29;102333.19;;;17.64;54.28
59190;BME280;50749;51.636;4.948;2023-04-08T02:19:05;102334.31;;;17.63;54.17
59190;BME280;50749;51.636;4.948;2023-04-08T02:21:42;102348.13;;;17.63;54.41
59190;BME280;50749;51.636;4.948;2023-04-08T02:24:12;102339.84;;;17.63;53.94
59190;BME280;50749;51.636;4.948;2023-04-08T02:26:38;102336.59;;;17.61;54.36
59190;BME280;50749;51.636;4.948;2023-04-08T02:29:06;102342.13;;;17.61;54.19
59190;BME280;50749;51.636;4.948;2023-04-08T02:31:37;102342.91;;;17.61;54.28
59190;BME280;50749;51.636;4.948;2023-04-08T02:34:07;102343.25;;;17.60;54.13
59190;BME280;50749;51.636;4.948;2023-04-08T02:36:34;102346.00;;;17.60;54.25
59190;BME280;50749;51.636;4.948;2023-04-08T02:39:00;102340.78;;;17.58;53.88
59190;BME280;50749;51.636;4.948;2023-04-08T02:41:28;102338.88;;;17.59;54.21
59190;BME280;50749;51.636;4.948;2023-04-08T02:43:55;102347.16;;;17.59;54.30
59190;BME280;50749;51.636;4.948;2023-04-08T02:46:20;102356.56;;;17.58;53.96
59190;BME280;50749;51.636;4.948;2023-04-08T02:48:47;102353.00;;;17.57;54.03
59190;BME280;50749;51.636;4.948;2023-04-08T02:51:12;102346.66;;;17.57;54.09
59190;BME280;50749;51.636;4.948;2023-04-08T02:53:38;102346.66;;;17.57;54.17
59190;BME280;50749;51.636;4.948;2023-04-08T02:56:04;102345.03;;;17.56;54.22
59190;BME280;50749;51.636;4.948;2023-04-08T02:58:30;102350.56;;;17.56;54.02
59190;BME280;50749;51.636;4.948;2023-04-08T03:00:56;102357.22;;;17.55;53.87
59190;BME280;50749;51.636;4.948;2023-04-08T03:03:22;102357.22;;;17.55;54.27
59190;BME280;50749;51.636;4.948;2023-04-08T03:05:52;102353.63;;;17.54;53.98
59190;BME280;50749;51.636;4.948;2023-04-08T03:08:19;102350.38;;;17.52;54.18
59190;BME280;50749;51.636;4.948;2023-04-08T03:10:45;102351.81;;;17.50;53.98
59190;BME280;50749;51.636;4.948;2023-04-08T03:13:11;102361.44;;;17.52;53.94
59190;BME280;50749;51.636;4.948;2023-04-08T03:15:36;102359.00;;;17.51;54.18
59190;BME280;50749;51.636;4.948;2023-04-08T03:18:03;102362.88;;;17.50;54.30
59190;BME280;50749;51.636;4.948;2023-04-08T03:20:28;102352.66;;;17.50;54.20
59190;BME280;50749;51.636;4.948;2023-04-08T03:22:57;102364.53;;;17.51;53.99
59190;BME280;50749;51.636;4.948;2023-04-08T03:25:23;102362.56;;;17.51;54.48
59190;BME280;50749;51.636;4.948;2023-04-08T03:27:49;102356.72;;;17.53;53.95
59190;BME280;50749;51.636;4.948;2023-04-08T03:30:15;102361.94;;;17.54;54.32
59190;BME280;50749;51.636;4.948;2023-04-08T03:32:41;102363.91;;;17.54;54.17
59190;BME280;50749;51.636;4.948;2023-04-08T03:35:07;102361.94;;;17.54;54.19
59190;BME280;50749;51.636;4.948;2023-04-08T03:37:33;102363.25;;;17.57;53.99
59190;BME280;50749;51.636;4.948;2023-04-08T03:39:59;102368.78;;;17.57;53.37
59190;BME280;50749;51.636;4.948;2023-04-08T03:42:25;102370.91;;;17.60;53.80
59190;BME280;50749;51.636;4.948;2023-04-08T03:44:51;102369.44;;;17.62;53.76
59190;BME280;50749;51.636;4.948;2023-04-08T03:47:17;102369.78;;;17.61;53.88
59190;BME280;50749;51.636;4.948;2023-04-08T03:49:43;102369.78;;;17.61;54.14
59190;BME280;50749;51.636;4.948;2023-04-08T03:52:09;102373.34;;;17.61;53.83
59190;BME280;50749;51.636;4.948;2023-04-08T03:54:34;102373.66;;;17.60;53.92
59190;BME280;50749;51.636;4.948;2023-04-08T03:57:00;102375.31;;;17.61;53.85
59190;BME280;50749;51.636;4.948;2023-04-08T03:59:26;102376.94;;;17.62;53.93
59190;BME280;50749;51.636;4.948;2023-04-08T04:01:52;102370.56;;;17.61;53.71
59190;BME280;50749;51.636;4.948;2023-04-08T04:04:18;102367.50;;;17.63;53.71
59190;BME280;50749;51.636;4.948;2023-04-08T04:06:44;102366.38;;;17.64;53.76
59190;BME280;50749;51.636;4.948;2023-04-08T04:09:10;102367.50;;;17.63;53.45
59190;BME280;50749;51.636;4.948;2023-04-08T04:11:36;102370.25;;;17.63;53.62
59190;BME280;50749;51.636;4.948;2023-04-08T04:14:02;102367.50;;;17.63;53.20
59190;BME280;50749;51.636;4.948;2023-04-08T04:16:28;102374.66;;;17.64;53.40
59190;BME280;50749;51.636;4.948;2023-04-08T04:18:54;102367.50;;;17.63;53.11
59190;BME280;50749;51.636;4.948;2023-04-08T04:21:20;102371.41;;;17.62;53.00
59190;BME280;50749;51.636;4.948;2023-04-08T04:23:46;102376.94;;;17.62;53.09
59190;BME280;50749;51.636;4.948;2023-04-08T04:26:12;102378.56;;;17.63;53.47
59190;BME280;50749;51.636;4.948;2023-04-08T04:28:38;102374.66;;;17.64;53.43
59190;BME280;50749;51.636;4.948;2023-04-08T04:31:04;102378.25;;;17.64;52.98
59190;BME280;50749;51.636;4.948;2023-04-08T04:33:30;102392.56;;;17.67;53.26
59190;BME280;50749;51.636;4.948;2023-04-08T04:35:56;102392.25;;;17.68;53.13
59190;BME280;50749;51.636;4.948;2023-04-08T04:38:22;102385.09;;;17.67;53.06
59190;BME280;50749;51.636;4.948;2023-04-08T04:40:48;102396.66;;;17.69;53.28
59190;BME280;50749;51.636;4.948;2023-04-08T04:43:13;102393.88;;;17.69;52.91
59190;BME280;50749;51.636;4.948;2023-04-08T04:45:39;102401.38;;;17.69;53.51
59190;BME280;50749;51.636;4.948;2023-04-08T04:48:05;102406.06;;;17.68;53.19
59190;BME280;50749;51.636;4.948;2023-04-08T04:50:31;102408.84;;;17.68;53.36
59190;BME280;50749;51.636;4.948;2023-04-08T04:52:57;102409.16;;;17.67;53.00
59190;BME280;50749;51.636;4.948;2023-04-08T04:55:23;102416.63;;;17.66;53.14
59190;BME280;50749;51.636;4.948;2023-04-08T04:57:48;102413.38;;;17.64;53.03
59190;BME280;50749;51.636;4.948;2023-04-08T05:00:15;102420.03;;;17.63;53.13
59190;BME280;50749;51.636;4.948;2023-04-08T05:02:41;102422.00;;;17.62;53.39
59190;BME280;50749;51.636;4.948;2023-04-08T05:05:07;102424.28;;;17.60;53.41
59190;BME280;50749;51.636;4.948;2023-04-08T05:07:37;102423.44;;;17.60;53.17
59190;BME280;50749;51.636;4.948;2023-04-08T05:10:04;102415.44;;;17.58;53.18
59190;BME280;50749;51.636;4.948;2023-04-08T05:12:30;102422.94;;;17.58;53.40
59190;BME280;50749;51.636;4.948;2023-04-08T05:14:59;102418.56;;;17.57;53.59
59190;BME280;50749;51.636;4.948;2023-04-08T05:17:25;102422.44;;;17.56;53.41
59190;BME280;50749;51.636;4.948;2023-04-08T05:19:51;102420.00;;;17.54;53.19
59190;BME280;50749;51.636;4.948;2023-04-08T05:22:18;102423.88;;;17.53;53.38
59190;BME280;50749;51.636;4.948;2023-04-08T05:24:44;102432.19;;;17.53;53.20
59190;BME280;50749;51.636;4.948;2023-04-08T05:27:10;102431.38;;;17.53;53.09
59190;BME280;50749;51.636;4.948;2023-04-08T05:29:35;102432.53;;;17.52;53.22
59190;BME280;50749;51.636;4.948;2023-04-08T05:32:01;102438.06;;;17.52;53.82
59190;BME280;50749;51.636;4.948;2023-04-08T05:34:27;102440.81;;;17.52;53.67
59190;BME280;50749;51.636;4.948;2023-04-08T05:36:53;102441.31;;;17.54;53.67
59190;BME280;50749;51.636;4.948;2023-04-08T05:39:19;102447.84;;;17.58;53.12
59190;BME280;50749;51.636;4.948;2023-04-08T05:41:45;102448.84;;;17.62;53.16
59190;BME280;50749;51.636;4.948;2023-04-08T05:44:12;102441.22;;;17.68;52.87
59190;BME280;50749;51.636;4.948;2023-04-08T05:46:40;102453.25;;;17.72;52.89
59190;BME280;50749;51.636;4.948;2023-04-08T05:49:06;102445.66;;;17.77;52.48
59190;BME280;50749;51.636;4.948;2023-04-08T05:51:32;102449.91;;;17.83;52.25
59190;BME280;50749;51.636;4.948;2023-04-08T05:53:59;102456.47;;;17.88;52.41
59190;BME280;50749;51.636;4.948;2023-04-08T05:56:24;102457.47;;;17.92;52.20
59190;BME280;50749;51.636;4.948;2023-04-08T05:58:50;102456.03;;;17.94;52.51
59190;BME280;50749;51.636;4.948;2023-04-08T06:01:16;102466.47;;;17.97;52.34
59190;BME280;50749;51.636;4.948;2023-04-08T06:03:42;102466.63;;;18.01;52.39
59190;BME280;50749;51.636;4.948;2023-04-08T06:06:11;102462.41;;;18.04;52.58
59190;BME280;50749;51.636;4.948;2023-04-08T06:08:37;102472.03;;;18.06;52.23
59190;BME280;50749;51.636;4.948;2023-04-08T06:11:03;102474.16;;;18.09;52.95
59190;BME280;50749;51.636;4.948;2023-04-08T06:13:30;102473.16;;;18.14;53.16
59190;BME280;50749;51.636;4.948;2023-04-08T06:15:56;102478.38;;;18.15;52.60
59190;BME280;50749;51.636;4.948;2023-04-08T06:18:22;102479.41;;;18.19;52.96
59190;BME280;50749;51.636;4.948;2023-04-08T06:20:48;102485.44;;;18.22;53.09
59190;BME280;50749;51.636;4.948;2023-04-08T06:23:15;102482.81;;;18.25;52.96
59190;BME280;50749;51.636;4.948;2023-04-08T06:25:41;102491.63;;;18.27;52.86
59190;BME280;50749;51.636;4.948;2023-04-08T06:28:07;102492.63;;;18.31;53.25
59190;BME280;50749;51.636;4.948;2023-04-08T06:30:33;102488.38;;;18.34;53.38
59190;BME280;50749;51.636;4.948;2023-04-08T06:32:59;102498.34;;;18.35;52.85
59190;BME280;50749;51.636;4.948;2023-04-08T06:35:25;102502.22;;;18.34;53.22
59190;BME280;50749;51.636;4.948;2023-04-08T06:37:52;102505.00;;;18.34;52.50
59190;BME280;50749;51.636;4.948;2023-04-08T06:40:17;102507.13;;;18.37;52.94
59190;BME280;50749;51.636;4.948;2023-04-08T06:42:43;102508.13;;;18.41;53.09
59190;BME280;50749;51.636;4.948;2023-04-08T06:45:09;102511.88;;;18.45;53.39
59190;BME280;50749;51.636;4.948;2023-04-08T06:47:36;102512.38;;;18.47;53.54
59190;BME280;50749;51.636;4.948;2023-04-08T06:50:01;102517.59;;;18.49;53.77
59190;BME280;50749;51.636;4.948;2023-04-08T06:52:27;102520.03;;;18.50;53.44
59190;BME280;50749;51.636;4.948;2023-04-08T06:54:53;102518.91;;;18.51;52.88
59190;BME280;50749;51.636;4.948;2023-04-08T06:57:19;102517.44;;;18.54;53.22
59190;BME280;50749;51.636;4.948;2023-04-08T06:59:44;102525.44;;;18.55;53.17
59190;BME280;50749;51.636;4.948;2023-04-08T07:02:11;102523.16;;;18.57;52.84
59190;BME280;50749;51.636;4.948;2023-04-08T07:04:38;102525.91;;;18.57;53.33
59190;BME280;50749;51.636;4.948;2023-04-08T07:07:04;102533.09;;;18.59;52.99
59190;BME280;50749;51.636;4.948;2023-04-08T07:09:29;102530.31;;;18.59;53.00
59190;BME280;50749;51.636;4.948;2023-04-08T07:11:55;102538.31;;;18.60;53.49
59190;BME280;50749;51.636;4.948;2023-04-08T07:14:22;102538.31;;;18.60;53.08
59190;BME280;50749;51.636;4.948;2023-04-08T07:16:47;102544.34;;;18.62;53.09
59190;BME280;50749;51.636;4.948;2023-04-08T07:19:13;102547.97;;;18.63;52.83
59190;BME280;50749;51.636;4.948;2023-04-08T07:21:39;102552.34;;;18.64;53.10
59190;BME280;50749;51.636;4.948;2023-04-08T07:24:05;102555.91;;;18.64;53.70
59190;BME280;50749;51.636;4.948;2023-04-08T07:26:31;102554.13;;;18.60;52.95
59190;BME280;50749;51.636;4.948;2023-04-08T07:28:57;102560.47;;;18.60;53.66
59190;BME280;50749;51.636;4.948;2023-04-08T07:31:23;102556.59;;;18.61;53.71
59190;BME280;50749;51.636;4.948;2023-04-08T07:33:49;102561.47;;;18.64;53.60
59190;BME280;50749;51.636;4.948;2023-04-08T07:36:15;102560.00;;;18.67;53.26
59190;BME280;50749;51.636;4.948;2023-04-08T07:38:42;102566.03;;;18.69;53.39
59190;BME280;50749;51.636;4.948;2023-04-08T07:41:08;102561.81;;;18.71;53.01
59190;BME280;50749;51.636;4.948;2023-04-08T07:43:34;102565.09;;;18.73;53.10
59190;BME280;50749;51.636;4.948;2023-04-08T07:46:03;102569.16;;;18.76;52.98
59190;BME280;50749;51.636;4.948;2023-04-08T07:48:30;102569.16;;;18.76;53.20
59190;BME280;50749;51.636;4.948;2023-04-08T07:50:57;102573.56;;;18.77;52.88
59190;BME280;50749;51.636;4.948;2023-04-08T07:53:22;102579.09;;;18.77;53.01
59190;BME280;50749;51.636;4.948;2023-04-08T07:55:52;102586.28;;;18.78;52.79
59190;BME280;50749;51.636;4.948;2023-04-08T07:58:18;102585.13;;;18.79;52.89
59190;BME280;50749;51.636;4.948;2023-04-08T08:00:44;102589.06;;;18.78;52.42
59190;BME280;50749;51.636;4.948;2023-04-08T08:03:09;102594.59;;;18.78;52.39
59190;BME280;50749;51.636;4.948;2023-04-08T08:05:35;102593.75;;;18.78;52.53
59190;BME280;50749;51.636;4.948;2023-04-08T08:08:04;102585.78;;;18.76;52.37
59190;BME280;50749;51.636;4.948;2023-04-08T08:10:32;102604.34;;;18.75;52.52
59190;BME280;50749;51.636;4.948;2023-04-08T08:12:58;102598.00;;;18.75;52.51
59190;BME280;50749;51.636;4.948;2023-04-08T08:15:24;102604.34;;;18.75;52.37
59190;BME280;50749;51.636;4.948;2023-04-08T08:17:50;102606.31;;;18.75;52.85
59190;BME280;50749;51.636;4.948;2023-04-08T08:20:16;102606.31;;;18.75;52.78
59190;BME280;50749;51.636;4.948;2023-04-08T08:22:41;102609.91;;;18.75;52.77
59190;BME280;50749;51.636;4.948;2023-04-08T08:25:09;102608.28;;;18.74;52.08
59190;BME280;50749;51.636;4.948;2023-04-08T08:27:34;102619.00;;;18.76;52.11
59190;BME280;50749;51.636;4.948;2023-04-08T08:30:02;102616.59;;;18.74;52.10
59190;BME280;50749;51.636;4.948;2023-04-08T08:32:28;102617.41;;;18.75;52.39
59190;BME280;50749;51.636;4.948;2023-04-08T08:34:54;102619.84;;;18.77;52.22
59190;BME280;50749;51.636;4.948;2023-04-08T08:37:20;102614.31;;;18.77;52.00
59190;BME280;50749;51.636;4.948;2023-04-08T08:39:46;102620.66;;;18.77;52.53
59190;BME280;50749;51.636;4.948;2023-04-08T08:42:21;102622.63;;;18.77;51.96
59190;BME280;50749;51.636;4.948;2023-04-08T08:44:48;102624.38;;;18.72;52.33
59190;BME280;50749;51.636;4.948;2023-04-08T08:47:17;102630.25;;;18.71;52.26
59190;BME280;50749;51.636;4.948;2023-04-08T08:49:44;102622.06;;;18.66;52.92
59190;BME280;50749;51.636;4.948;2023-04-08T08:52:10;102627.75;;;18.61;52.43
59190;BME280;50749;51.636;4.948;2023-04-08T08:54:40;102632.81;;;18.59;52.68
59190;BME280;50749;51.636;4.948;2023-04-08T08:57:18;102634.47;;;18.60;52.78
59190;BME280;50749;51.636;4.948;2023-04-08T08:59:47;102627.75;;;18.61;52.77
59190;BME280;50749;51.636;4.948;2023-04-08T09:02:30;102638.84;;;18.61;52.80
59190;BME280;50749;51.636;4.948;2023-04-08T09:07:24;102636.59;;;18.63;52.41
59190;BME280;50749;51.636;4.948;2023-04-08T09:09:54;102644.56;;;18.64;52.81
59190;BME280;50749;51.636;4.948;2023-04-08T09:12:21;102648.97;;;18.65;52.44
59190;BME280;50749;51.636;4.948;2023-04-08T09:14:48;102650.09;;;18.64;52.49
59190;BME280;50749;51.636;4.948;2023-04-08T09:17:13;102644.56;;;18.64;52.38
59190;BME280;50749;51.636;4.948;2023-04-08T09:20:03;102641.47;;;18.66;52.67
59190;BME280;50749;51.636;4.948;2023-04-08T09:22:30;102648.34;;;18.68;52.63
59190;BME280;50749;51.636;4.948;2023-04-08T09:24:56;102643.59;;;18.69;52.49
59190;BME280;50749;51.636;4.948;2023-04-08T09:27:34;102648.50;;;18.72;52.76
59190;BME280;50749;51.636;4.948;2023-04-08T09:30:14;102659.28;;;18.73;53.04
59190;BME280;50749;51.636;4.948;2023-04-08T09:32:46;102655.19;;;18.71;52.72
59190;BME280;50749;51.636;4.948;2023-04-08T09:35:13;102654.88;;;18.72;52.21
59190;BME280;50749;51.636;4.948;2023-04-08T09:37:40;102652.09;;;18.72;52.76
59190;BME280;50749;51.636;4.948;2023-04-08T09:40:07;102654.88;;;18.72;52.43
59190;BME280;50749;51.636;4.948;2023-04-08T09:42:36;102660.09;;;18.74;52.45
59190;BME280;50749;51.636;4.948;2023-04-08T09:45:05;102652.94;;;18.73;52.63
59190;BME280;50749;51.636;4.948;2023-04-08T09:47:58;102660.22;;;18.69;51.28
59190;BME280;50749;51.636;4.948;2023-04-08T09:50:32;102657.47;;;18.69;51.94
59190;BME280;50749;51.636;4.948;2023-04-08T09:53:12;102662.69;;;18.70;52.01
59190;BME280;50749;51.636;4.948;2023-04-08T09:55:46;102667.91;;;18.72;52.24
59190;BME280;50749;51.636;4.948;2023-04-08T09:58:17;102666.25;;;18.71;52.16
59190;BME280;50749;51.636;4.948;2023-04-08T10:00:46;102669.03;;;18.71;51.91
59190;BME280;50749;51.636;4.948;2023-04-08T10:03:28;102667.91;;;18.72;52.28
59190;BME280;50749;51.636;4.948;2023-04-08T10:05:56;102668.72;;;18.72;52.38
59190;BME280;50749;51.636;4.948;2023-04-08T10:08:23;102670.34;;;18.73;52.53
59190;BME280;50749;51.636;4.948;2023-04-08T10:10:50;102657.31;;;18.74;52.52
59190;BME280;50749;51.636;4.948;2023-04-08T10:13:16;102660.41;;;18.72;52.61
59190;BME280;50749;51.636;4.948;2023-04-08T10:15:43;102664.81;;;18.73;52.76
59190;BME280;50749;51.636;4.948;2023-04-08T10:23:05;102658.66;;;18.77;52.68
59190;BME280;50749;51.636;4.948;2023-04-08T10:30:42;102651.31;;;18.81;52.43
59190;BME280;50749;51.636;4.948;2023-04-08T10:33:16;102656.53;;;18.82;52.61
59190;BME280;50749;51.636;4.948;2023-04-08T10:35:46;102656.53;;;18.82;52.51
59190;BME280;50749;51.636;4.948;2023-04-08T10:38:13;102658.22;;;18.83;52.06
59190;BME280;50749;51.636;4.948;2023-04-08T10:40:40;102660.97;;;18.83;52.14
59190;BME280;50749;51.636;4.948;2023-04-08T10:43:11;102657.91;;;18.85;52.55
59190;BME280;50749;51.636;4.948;2023-04-08T10:45:38;102650.38;;;18.85;52.53
59190;BME280;50749;51.636;4.948;2023-04-08T10:48:16;102651.72;;;18.88;52.54
59190;BME280;50749;51.636;4.948;2023-04-08T10:50:51;102650.56;;;18.89;52.71
59190;BME280;50749;51.636;4.948;2023-04-08T10:53:17;102649.44;;;18.90;52.63
59190;BME280;50749;51.636;4.948;2023-04-08T10:55:43;102645.19;;;18.92;52.26
59190;BME280;50749;51.636;4.948;2023-04-08T10:58:09;102648.28;;;18.91;52.30
59190;BME280;50749;51.636;4.948;2023-04-08T11:00:37;102644.38;;;18.92;52.29
59190;BME280;50749;51.636;4.948;2023-04-08T11:03:09;102646.19;;;18.97;52.10
59190;BME280;50749;51.636;4.948;2023-04-08T11:05:36;102649.94;;;19.01;52.61
59190;BME280;50749;51.636;4.948;2023-04-08T11:08:04;102648.81;;;19.02;52.24
59190;BME280;50749;51.636;4.948;2023-04-08T11:10:36;102655.47;;;19.01;52.71
59190;BME280;50749;51.636;4.948;2023-04-08T11:13:02;102646.03;;;18.93;52.76
59190;BME280;50749;51.636;4.948;2023-04-08T11:15:29;102649.75;;;18.88;52.32
59190;BME280;50749;51.636;4.948;2023-04-08T11:17:55;102650.06;;;18.87;52.49
59190;BME280;50749;51.636;4.948;2023-04-08T11:20:21;102641.75;;;18.87;52.65
59190;BME280;50749;51.636;4.948;2023-04-08T11:22:47;102646.97;;;18.88;52.54
59190;BME280;50749;51.636;4.948;2023-04-08T11:25:13;102641.28;;;18.85;52.25
59190;BME280;50749;51.636;4.948;2023-04-08T11:27:39;102648.84;;;18.79;52.94
59190;BME280;50749;51.636;4.948;2023-04-08T11:30:06;102639.56;;;18.75;52.55
59190;BME280;50749;51.636;4.948;2023-04-08T11:32:34;102635.47;;;18.72;53.07
59190;BME280;50749;51.636;4.948;2023-04-08T11:35:01;102624.38;;;18.72;53.06
59190;BME280;50749;51.636;4.948;2023-04-08T11:37:43;102625.72;;;18.75;53.13
59190;BME280;50749;51.636;4.948;2023-04-08T11:40:19;102624.38;;;18.72;52.84
59190;BME280;50749;51.636;4.948;2023-04-08T11:42:45;102622.94;;;18.75;52.66
59190;BME280;50749;51.636;4.948;2023-04-08T11:45:13;102620.00;;;18.71;52.80
59190;BME280;50749;51.636;4.948;2023-04-08T11:47:39;102626.03;;;18.73;52.98
59190;BME280;50749;51.636;4.948;2023-04-08T11:50:06;102626.34;;;18.72;52.79
59190;BME280;50749;51.636;4.948;2023-04-08T11:52:46;102618.03;;;18.72;52.64
59190;BME280;50749;51.636;4.948;2023-04-08T11:55:24;102616.06;;;18.72;52.53
59190;BME280;50749;51.636;4.948;2023-04-08T11:57:50;102622.44;;;18.73;52.88
59190;BME280;50749;51.636;4.948;2023-04-08T12:00:18;102619.69;;;18.73;52.65
59190;BME280;50749;51.636;4.948;2023-04-08T12:02:44;102616.06;;;18.72;52.68
59190;BME280;50749;51.636;4.948;2023-04-08T12:05:11;102613.63;;;18.71;52.85
59190;BME280;50749;51.636;4.948;2023-04-08T12:07:37;102616.41;;;18.71;52.50
59190;BME280;50749;51.636;4.948;2023-04-08T12:10:04;102609.56;;;18.68;52.68
59190;BME280;50749;51.636;4.948;2023-04-08T12:12:30;102609.38;;;18.65;52.60
59190;BME280;50749;51.636;4.948;2023-04-08T12:14:56;102612.97;;;18.65;52.55
59190;BME280;50749;51.636;4.948;2023-04-08T12:17:22;102616.84;;;18.64;52.82
59190;BME280;50749;51.636;4.948;2023-04-08T12:19:48;102622.59;;;18.68;52.93
59190;BME280;50749;51.636;4.948;2023-04-08T12:22:13;102616.53;;;18.66;52.84
59190;BME280;50749;51.636;4.948;2023-04-08T12:24:41;102615.72;;;18.65;52.55
59190;BME280;50749;51.636;4.948;2023-04-08T12:27:06;102611.00;;;18.66;52.83
59190;BME280;50749;51.636;4.948;2023-04-08T12:29:32;102613.97;;;18.69;52.29
59190;BME280;50749;51.636;4.948;2023-04-08T12:31:58;102611.69;;;18.71;52.35
59190;BME280;50749;51.636;4.948;2023-04-08T12:34:25;102612.50;;;18.72;52.19
59190;BME280;50749;51.636;4.948;2023-04-08T12:36:50;102614.16;;;18.73;52.14
59190;BME280;50749;51.636;4.948;2023-04-08T12:39:16;102613.31;;;18.72;52.34
59190;BME280;50749;51.636;4.948;2023-04-08T12:41:42;102612.00;;;18.70;52.44
59190;BME280;50749;51.636;4.948;2023-04-08T12:44:08;102606.31;;;18.75;52.23
59190;BME280;50749;51.636;4.948;2023-04-08T12:46:34;102599.97;;;18.74;52.16
59190;BME280;50749;51.636;4.948;2023-04-08T12:49:00;102609.72;;;18.72;52.17
59190;BME280;50749;51.636;4.948;2023-04-08T12:51:25;102605.97;;;18.68;52.20
59190;BME280;50749;51.636;4.948;2023-04-08T12:53:51;102597.16;;;18.66;52.08
59190;BME280;50749;51.636;4.948;2023-04-08T12:56:17;102597.16;;;18.66;52.05
59190;BME280;50749;51.636;4.948;2023-04-08T12:58:43;102590.81;;;18.65;51.40
59190;BME280;50749;51.636;4.948;2023-04-08T13:01:08;102587.84;;;18.62;51.99
59190;BME280;50749;51.636;4.948;2023-04-08T13:03:34;102591.44;;;18.62;52.06
59190;BME280;50749;51.636;4.948;2023-04-08T13:06:00;102591.25;;;18.59;52.03
59190;BME280;50749;51.636;4.948;2023-04-08T13:08:27;102592.91;;;18.60;51.95
59190;BME280;50749;51.636;4.948;2023-04-08T13:10:52;102595.16;;;18.57;52.11